sensor_id;sensor_type;location;lat;lon;timestamp;temperature;humidity
5218;DHT22;26539;51.064;6.346;2023-05-01T00:00:23;13.20;99.90
5218;DHT22;26539;51.064;6.346;2023-05-01T00:02:49;13.20;99.90
5218;DHT22;26539;51.064;6.346;2023-05-01T00:05:15;13.30;99.90
5218;DHT22;26539;51.064;6.346;2023-05-01T00:07:40;13.30;99.90
5218;DHT22;26539;51.064;6.346;2023-05-01T00:10:06;13.30;99.90
5218;DHT22;26539;51.064;6.346;2023-05-01T00:12:32;13.30;99.90
5218;DHT22;26539;51.064;6.346;2023-05-01T00:14:58;13.30;99.90
5218;DHT22;26539;51.064;6.346;2023-05-01T00:17:24;13.30;99.90
5218;DHT22;26539;51.064;6.346;2023-05-01T00:19:53;13.30;99.90
5218;DHT22;26539;51.064;6.346;2023-05-01T00:22:18;13.30;99.90
5218;DHT22;26539;51.064;6.346;2023-05-01T00:24:44;13.30;99.90
5218;DHT22;26539;51.064;6.346;2023-05-01T00:27:12;13.30;99.90
5218;DHT22;26539;51.064;6.346;2023-05-01T00:29:38;13.30;99.90
5218;DHT22;26539;51.064;6.346;2023-05-01T00:32:04;13.30;99.90
5218;DHT22;26539;51.064;6.346;2023-05-01T00:34:29;13.30;99.90
5218;DHT22;26539;51.064;6.346;2023-05-01T00:36:55;13.30;99.90
5218;DHT22;26539;51.064;6.346;2023-05-01T00:39:21;13.30;99.90
5218;DHT22;26539;51.064;6.346;2023-05-01T00:41:46;13.30;99.90
5218;DHT22;26539;51.064;6.346;2023-05-01T00:44:12;13.40;99.90
5218;DHT22;26539;51.064;6.346;2023-05-01T00:46:37;13.40;99.90
5218;DHT22;26539;51.064;6.346;2023-05-01T00:49:03;13.40;99.90
5218;DHT22;26539;51.064;6.346;2023-05-01T00:51:29;13.40;99.90
5218;DHT22;26539;51.064;6.346;2023-05-01T00:53:56;13.50;99.90
5218;DHT22;26539;51.064;6.346;2023-05-01T00:56:23;13.50;99.90
5218;DHT22;26539;51.064;6.346;2023-05-01T00:58:50;13.50;99.90
5218;DHT22;26539;51.064;6.346;2023-05-01T01:01:19;13.50;99.90
5218;DHT22;26539;51.064;6.346;2023-05-01T01:03:45;13.50;99.90
5218;DHT22;26539;51.064;6.346;2023-05-01T01:09:22;13.50;99.90
5218;DHT22;26539;51.064;6.346;2023-05-01T01:12:12;13.40;99.90
5218;DHT22;26539;51.064;6.346;2023-05-01T01:14:47;13.40;99.90
5218;DHT22;26539;51.064;6.346;2023-05-01T01:17:28;13.40;99.90
5218;DHT22;26539;51.064;6.346;2023-05-01T01:26:31;13.50;99.90
5218;DHT22;26539;51.064;6.346;2023-05-01T01:34:39;13.40;99.90
5218;DHT22;26539;51.064;6.346;2023-05-01T01:37:37;13.40;99.90
5218;DHT22;26539;51.064;6.346;2023-05-01T01:40:28;13.40;99.90
5218;DHT22;26539;51.064;6.346;2023-05-01T01:43:01;13.30;99.90
5218;DHT22;26539;51.064;6.346;2023-05-01T01:45:33;13.30;99.90
5218;DHT22;26539;51.064;6.346;2023-05-01T01:48:02;13.20;99.90
5218;DHT22;26539;51.064;6.346;2023-05-01T01:50:29;13.10;99.90
5218;DHT22;26539;51.064;6.346;2023-05-01T01:52:58;13.10;99.90
5218;DHT22;26539;51.064;6.346;2023-05-01T01:55:28;13.00;99.90
5218;DHT22;26539;51.064;6.346;2023-05-01T01:57:57;13.00;99.90
5218;DHT22;26539;51.064;6.346;2023-05-01T02:00:24;12.90;99.90
5218;DHT22;26539;51.064;6.346;2023-05-01T02:02:50;12.90;99.90
5218;DHT22;26539;51.064;6.346;2023-05-01T02:05:18;12.80;99.90
5218;DHT22;26539;51.064;6.346;2023-05-01T02:07:48;12.70;99.90
5218;DHT22;26539;51.064;6.346;2023-05-01T02:10:16;12.70;99.90
5218;DHT22;26539;51.064;6.346;2023-05-01T02:12:44;12.70;99.90
5218;DHT22;26539;51.064;6.346;2023-05-01T02:15:10;12.70;99.90
5218;DHT22;26539;51.064;6.346;2023-05-01T02:17:39;12.70;99.90
5218;DHT22;26539;51.064;6.346;2023-05-01T02:20:06;12.70;99.90
5218;DHT22;26539;51.064;6.346;2023-05-01T02:22:33;12.70;99.90
5218;DHT22;26539;51.064;6.346;2023-05-01T02:25:00;12.70;99.90
5218;DHT22;26539;51.064;6.346;2023-05-01T02:27:35;12.70;99.90
5218;DHT22;26539;51.064;6.346;2023-05-01T02:30:02;12.70;99.90
5218;DHT22;26539;51.064;6.346;2023-05-01T02:32:30;12.70;99.90
5218;DHT22;26539;51.064;6.346;2023-05-01T02:34:56;12.70;99.90
5218;DHT22;26539;51.064;6.346;2023-05-01T02:37:22;12.70;99.90
5218;DHT22;26539;51.064;6.346;2023-05-01T02:39:47;12.60;99.90
5218;DHT22;26539;51.064;6.346;2023-05-01T02:42:15;12.70;99.90
5218;DHT22;26539;51.064;6.346;2023-05-01T02:44:56;12.60;99.90
5218;DHT22;26539;51.064;6.346;2023-05-01T02:47:22;12.60;99.90
5218;DHT22;26539;51.064;6.346;2023-05-01T02:49:50;12.60;99.90
5218;DHT22;26539;51.064;6.346;2023-05-01T02:52:18;12.60;99.90
5218;DHT22;26539;51.064;6.346;2023-05-01T02:54:44;12.70;99.90
5218;DHT22;26539;51.064;6.346;2023-05-01T02:57:13;12.70;99.90
5218;DHT22;26539;51.064;6.346;2023-05-01T02:59:39;12.70;99.90
5218;DHT22;26539;51.064;6.346;2023-05-01T03:02:07;12.80;99.90
5218;DHT22;26539;51.064;6.346;2023-05-01T03:04:32;12.80;99.90
5218;DHT22;26539;51.064;6.346;2023-05-01T03:06:58;12.80;99.90
5218;DHT22;26539;51.064;6.346;2023-05-01T03:09:23;12.80;99.90
5218;DHT22;26539;51.064;6.346;2023-05-01T03:11:49;12.80;99.90
5218;DHT22;26539;51.064;6.346;2023-05-01T03:14:15;12.80;99.90
5218;DHT22;26539;51.064;6.346;2023-05-01T03:16:41;12.80;99.90
5218;DHT22;26539;51.064;6.346;2023-05-01T03:19:06;12.80;99.90
5218;DHT22;26539;51.064;6.346;2023-05-01T03:21:32;12.80;99.90
5218;DHT22;26539;51.064;6.346;2023-05-01T03:23:58;12.80;99.90
5218;DHT22;26539;51.064;6.346;2023-05-01T03:26:24;12.80;99.90
5218;DHT22;26539;51.064;6.346;2023-05-01T03:28:50;12.80;99.90
5218;DHT22;26539;51.064;6.346;2023-05-01T03:31:15;12.80;99.90
5218;DHT22;26539;51.064;6.346;2023-05-01T03:33:41;12.80;99.90
5218;DHT22;26539;51.064;6.346;2023-05-01T03:36:07;12.80;99.90
5218;DHT22;26539;51.064;6.346;2023-05-01T03:38:35;12.90;99.90
5218;DHT22;26539;51.064;6.346;2023-05-01T03:41:01;12.90;99.90
5218;DHT22;26539;51.064;6.346;2023-05-01T03:43:30;12.90;99.90
5218;DHT22;26539;51.064;6.346;2023-05-01T03:45:56;12.90;99.90
5218;DHT22;26539;51.064;6.346;2023-05-01T03:48:25;12.90;99.90
5218;DHT22;26539;51.064;6.346;2023-05-01T03:50:51;12.90;99.90
5218;DHT22;26539;51.064;6.346;2023-05-01T03:53:17;12.90;99.90
5218;DHT22;26539;51.064;6.346;2023-05-01T03:55:43;12.90;99.90
5218;DHT22;26539;51.064;6.346;2023-05-01T03:58:08;12.90;99.90
5218;DHT22;26539;51.064;6.346;2023-05-01T04:00:35;12.90;99.90
5218;DHT22;26539;51.064;6.346;2023-05-01T04:03:02;12.90;99.90
5218;DHT22;26539;51.064;6.346;2023-05-01T04:05:27;12.90;99.90
5218;DHT22;26539;51.064;6.346;2023-05-01T04:07:53;12.90;99.90
5218;DHT22;26539;51.064;6.346;2023-05-01T04:10:19;12.90;99.90
5218;DHT22;26539;51.064;6.346;2023-05-01T04:12:44;12.90;99.90
5218;DHT22;26539;51.064;6.346;2023-05-01T04:15:10;12.90;99.90
5218;DHT22;26539;51.064;6.346;2023-05-01T04:17:36;12.90;99.90
5218;DHT22;26539;51.064;6.346;2023-05-01T04:20:02;12.80;99.90
5218;DHT22;26539;51.064;6.346;2023-05-01T04:22:29;12.80;99.90
5218;DHT22;26539;51.064;6.346;2023-05-01T04:24:59;12.80;99.90
5218;DHT22;26539;51.064;6.346;2023-05-01T04:27:24;12.90;99.90
5218;DHT22;26539;51.064;6.346;2023-05-01T04:29:50;12.90;99.90
5218;DHT22;26539;51.064;6.346;2023-05-01T04:32:16;12.80;99.90
5218;DHT22;26539;51.064;6.346;2023-05-01T04:34:42;12.80;99.90
5218;DHT22;26539;51.064;6.346;2023-05-01T04:37:10;12.90;99.90
5218;DHT22;26539;51.064;6.346;2023-05-01T04:39:36;12.90;99.90
5218;DHT22;26539;51.064;6.346;2023-05-01T04:42:03;13.00;99.90
5218;DHT22;26539;51.064;6.346;2023-05-01T04:44:29;13.00;99.90
5218;DHT22;26539;51.064;6.346;2023-05-01T04:46:54;13.00;99.90
5218;DHT22;26539;51.064;6.346;2023-05-01T04:49:21;13.10;99.90
5218;DHT22;26539;51.064;6.346;2023-05-01T04:51:46;13.10;99.90
5218;DHT22;26539;51.064;6.346;2023-05-01T04:54:12;13.10;99.90
5218;DHT22;26539;51.064;6.346;2023-05-01T04:56:37;13.30;99.90
5218;DHT22;26539;51.064;6.346;2023-05-01T04:59:03;13.40;99.90
5218;DHT22;26539;51.064;6.346;2023-05-01T05:01:28;13.50;99.90
5218;DHT22;26539;51.064;6.346;2023-05-01T05:03:54;13.60;99.90
5218;DHT22;26539;51.064;6.346;2023-05-01T05:06:20;13.80;99.90
5218;DHT22;26539;51.064;6.346;2023-05-01T05:08:46;13.80;99.90
5218;DHT22;26539;51.064;6.346;2023-05-01T05:11:11;13.80;99.90
5218;DHT22;26539;51.064;6.346;2023-05-01T05:13:37;13.80;99.90
5218;DHT22;26539;51.064;6.346;2023-05-01T05:16:02;13.80;99.90
5218;DHT22;26539;51.064;6.346;2023-05-01T05:18:28;13.80;99.90
5218;DHT22;26539;51.064;6.346;2023-05-01T05:20:53;13.80;99.90
5218;DHT22;26539;51.064;6.346;2023-05-01T05:23:19;13.80;99.90
5218;DHT22;26539;51.064;6.346;2023-05-01T05:25:45;13.80;99.90
5218;DHT22;26539;51.064;6.346;2023-05-01T05:28:11;13.70;99.90
5218;DHT22;26539;51.064;6.346;2023-05-01T05:30:36;13.70;99.90
5218;DHT22;26539;51.064;6.346;2023-05-01T05:33:02;13.80;99.90
5218;DHT22;26539;51.064;6.346;2023-05-01T05:35:28;13.80;99.90
5218;DHT22;26539;51.064;6.346;2023-05-01T05:37:53;13.80;99.90
5218;DHT22;26539;51.064;6.346;2023-05-01T05:40:19;13.80;99.90
5218;DHT22;26539;51.064;6.346;2023-05-01T05:42:44;13.80;99.90
5218;DHT22;26539;51.064;6.346;2023-05-01T05:45:10;13.90;99.90
5218;DHT22;26539;51.064;6.346;2023-05-01T05:47:36;13.80;99.90
5218;DHT22;26539;51.064;6.346;2023-05-01T05:50:01;13.80;99.90
5218;DHT22;26539;51.064;6.346;2023-05-01T05:52:28;13.80;99.90
5218;DHT22;26539;51.064;6.346;2023-05-01T05:54:53;13.90;99.90
5218;DHT22;26539;51.064;6.346;2023-05-01T05:57:19;13.90;99.90
5218;DHT22;26539;51.064;6.346;2023-05-01T05:59:44;13.90;99.90
5218;DHT22;26539;51.064;6.346;2023-05-01T06:02:10;13.90;99.90
5218;DHT22;26539;51.064;6.346;2023-05-01T06:04:35;13.90;99.90
5218;DHT22;26539;51.064;6.346;2023-05-01T06:07:01;14.00;99.90
5218;DHT22;26539;51.064;6.346;2023-05-01T06:09:27;14.10;99.90
5218;DHT22;26539;51.064;6.346;2023-05-01T06:11:52;14.20;99.90
5218;DHT22;26539;51.064;6.346;2023-05-01T06:14:18;14.30;99.90
5218;DHT22;26539;51.064;6.346;2023-05-01T06:16:43;14.30;99.90
5218;DHT22;26539;51.064;6.346;2023-05-01T06:19:09;14.40;99.90
5218;DHT22;26539;51.064;6.346;2023-05-01T06:21:36;14.50;99.90
5218;DHT22;26539;51.064;6.346;2023-05-01T06:24:02;14.60;99.90
5218;DHT22;26539;51.064;6.346;2023-05-01T06:26:27;14.60;99.90
5218;DHT22;26539;51.064;6.346;2023-05-01T06:28:53;14.60;99.90
5218;DHT22;26539;51.064;6.346;2023-05-01T06:31:19;14.60;99.90
5218;DHT22;26539;51.064;6.346;2023-05-01T06:33:44;14.60;99.90
5218;DHT22;26539;51.064;6.346;2023-05-01T06:36:10;14.60;99.90
5218;DHT22;26539;51.064;6.346;2023-05-01T06:38:36;14.70;99.90
5218;DHT22;26539;51.064;6.346;2023-05-01T06:41:03;14.80;99.90
5218;DHT22;26539;51.064;6.346;2023-05-01T06:43:29;14.90;99.90
5218;DHT22;26539;51.064;6.346;2023-05-01T06:45:55;15.10;99.90
5218;DHT22;26539;51.064;6.346;2023-05-01T06:48:21;15.20;99.90
5218;DHT22;26539;51.064;6.346;2023-05-01T06:50:47;15.40;99.90
5218;DHT22;26539;51.064;6.346;2023-05-01T06:53:12;15.60;99.90
5218;DHT22;26539;51.064;6.346;2023-05-01T06:55:38;15.80;99.90
5218;DHT22;26539;51.064;6.346;2023-05-01T06:58:03;16.10;99.90
5218;DHT22;26539;51.064;6.346;2023-05-01T07:00:30;16.30;99.90
5218;DHT22;26539;51.064;6.346;2023-05-01T07:02:56;16.70;99.90
5218;DHT22;26539;51.064;6.346;2023-05-01T07:05:22;17.00;99.90
5218;DHT22;26539;51.064;6.346;2023-05-01T07:07:47;17.30;99.90
5218;DHT22;26539;51.064;6.346;2023-05-01T07:10:13;17.70;99.90
5218;DHT22;26539;51.064;6.346;2023-05-01T07:12:40;18.20;99.90
5218;DHT22;26539;51.064;6.346;2023-05-01T07:15:06;19.20;99.90
5218;DHT22;26539;51.064;6.346;2023-05-01T07:17:32;19.90;99.90
5218;DHT22;26539;51.064;6.346;2023-05-01T07:19:58;20.90;99.90
5218;DHT22;26539;51.064;6.346;2023-05-01T07:22:25;21.90;99.90
5218;DHT22;26539;51.064;6.346;2023-05-01T07:24:51;22.30;99.90
5218;DHT22;26539;51.064;6.346;2023-05-01T07:27:16;22.60;99.90
5218;DHT22;26539;51.064;6.346;2023-05-01T07:29:42;23.30;99.90
5218;DHT22;26539;51.064;6.346;2023-05-01T07:32:08;24.10;99.90
5218;DHT22;26539;51.064;6.346;2023-05-01T07:34:34;25.10;99.90
5218;DHT22;26539;51.064;6.346;2023-05-01T07:37:00;25.40;99.90
5218;DHT22;26539;51.064;6.346;2023-05-01T07:39:25;26.10;99.90
5218;DHT22;26539;51.064;6.346;2023-05-01T07:41:51;26.20;99.90
5218;DHT22;26539;51.064;6.346;2023-05-01T07:44:16;27.30;99.90
5218;DHT22;26539;51.064;6.346;2023-05-01T07:46:42;28.30;99.90
5218;DHT22;26539;51.064;6.346;2023-05-01T07:49:08;28.50;99.90
5218;DHT22;26539;51.064;6.346;2023-05-01T07:51:33;28.40;99.90
5218;DHT22;26539;51.064;6.346;2023-05-01T07:53:59;28.80;99.90
5218;DHT22;26539;51.064;6.346;2023-05-01T07:56:31;29.20;99.90
5218;DHT22;26539;51.064;6.346;2023-05-01T07:58:58;29.30;99.90
5218;DHT22;26539;51.064;6.346;2023-05-01T08:01:24;29.60;99.90
5218;DHT22;26539;51.064;6.346;2023-05-01T08:03:49;30.30;99.90
5218;DHT22;26539;51.064;6.346;2023-05-01T08:06:15;31.10;99.90
5218;DHT22;26539;51.064;6.346;2023-05-01T08:08:41;31.90;99.90
5218;DHT22;26539;51.064;6.346;2023-05-01T08:11:08;32.70;99.90
5218;DHT22;26539;51.064;6.346;2023-05-01T08:13:34;33.70;99.90
5218;DHT22;26539;51.064;6.346;2023-05-01T08:16:03;34.40;99.90
5218;DHT22;26539;51.064;6.346;2023-05-01T08:18:29;35.00;99.90
5218;DHT22;26539;51.064;6.346;2023-05-01T08:20:55;35.70;99.90
5218;DHT22;26539;51.064;6.346;2023-05-01T08:23:21;36.30;99.90
5218;DHT22;26539;51.064;6.346;2023-05-01T08:25:46;36.90;99.90
5218;DHT22;26539;51.064;6.346;2023-05-01T08:28:15;38.20;99.90
5218;DHT22;26539;51.064;6.346;2023-05-01T08:30:41;39.90;99.90
5218;DHT22;26539;51.064;6.346;2023-05-01T08:33:06;41.20;99.90
5218;DHT22;26539;51.064;6.346;2023-05-01T08:35:32;42.30;99.90
5218;DHT22;26539;51.064;6.346;2023-05-01T08:37:58;43.10;99.90
5218;DHT22;26539;51.064;6.346;2023-05-01T08:40:25;44.30;99.90
5218;DHT22;26539;51.064;6.346;2023-05-01T08:42:50;45.00;99.90
5218;DHT22;26539;51.064;6.346;2023-05-01T08:45:17;45.90;99.90
5218;DHT22;26539;51.064;6.346;2023-05-01T08:47:48;46.10;99.90
5218;DHT22;26539;51.064;6.346;2023-05-01T08:50:15;45.70;99.90
5218;DHT22;26539;51.064;6.346;2023-05-01T08:52:42;44.10;98.90
5218;DHT22;26539;51.064;6.346;2023-05-01T08:55:18;42.30;94.60
5218;DHT22;26539;51.064;6.346;2023-05-01T08:57:45;40.80;92.30
5218;DHT22;26539;51.064;6.346;2023-05-01T09:00:20;40.40;90.40
5218;DHT22;26539;51.064;6.346;2023-05-01T09:02:50;40.60;90.00
5218;DHT22;26539;51.064;6.346;2023-05-01T09:05:17;40.00;88.00
5218;DHT22;26539;51.064;6.346;2023-05-01T09:07:44;39.00;83.10
5218;DHT22;26539;51.064;6.346;2023-05-01T09:10:15;38.60;82.10
5218;DHT22;26539;51.064;6.346;2023-05-01T09:12:43;38.00;79.00
5218;DHT22;26539;51.064;6.346;2023-05-01T09:15:11;37.60;78.70
5218;DHT22;26539;51.064;6.346;2023-05-01T09:17:37;37.90;81.40
5218;DHT22;26539;51.064;6.346;2023-05-01T09:20:04;38.50;83.30
5218;DHT22;26539;51.064;6.346;2023-05-01T09:22:31;39.30;85.90
5218;DHT22;26539;51.064;6.346;2023-05-01T09:24:57;40.60;88.70
5218;DHT22;26539;51.064;6.346;2023-05-01T09:27:24;41.50;90.60
5218;DHT22;26539;51.064;6.346;2023-05-01T09:29:51;41.70;88.90
5218;DHT22;26539;51.064;6.346;2023-05-01T09:32:22;40.40;81.20
5218;DHT22;26539;51.064;6.346;2023-05-01T09:34:50;39.40;75.00
5218;DHT22;26539;51.064;6.346;2023-05-01T09:37:28;38.50;71.60
5218;DHT22;26539;51.064;6.346;2023-05-01T09:42:33;37.60;68.80
5218;DHT22;26539;51.064;6.346;2023-05-01T09:44:59;37.40;67.30
5218;DHT22;26539;51.064;6.346;2023-05-01T09:47:27;36.90;67.20
5218;DHT22;26539;51.064;6.346;2023-05-01T09:49:54;36.70;66.40
5218;DHT22;26539;51.064;6.346;2023-05-01T09:52:21;36.40;66.80
5218;DHT22;26539;51.064;6.346;2023-05-01T09:54:47;36.00;64.70
5218;DHT22;26539;51.064;6.346;2023-05-01T09:57:12;35.40;63.60
5218;DHT22;26539;51.064;6.346;2023-05-01T09:59:38;34.90;62.40
5218;DHT22;26539;51.064;6.346;2023-05-01T10:02:03;34.60;62.60
5218;DHT22;26539;51.064;6.346;2023-05-01T10:04:33;34.20;62.00
5218;DHT22;26539;51.064;6.346;2023-05-01T10:07:14;33.80;61.60
5218;DHT22;26539;51.064;6.346;2023-05-01T10:09:39;33.80;62.00
5218;DHT22;26539;51.064;6.346;2023-05-01T10:12:08;33.50;61.80
5218;DHT22;26539;51.064;6.346;2023-05-01T10:14:48;33.50;62.80
5218;DHT22;26539;51.064;6.346;2023-05-01T10:17:17;33.70;65.10
5218;DHT22;26539;51.064;6.346;2023-05-01T10:19:46;33.80;65.10
5218;DHT22;26539;51.064;6.346;2023-05-01T10:22:12;34.10;68.70
5218;DHT22;26539;51.064;6.346;2023-05-01T10:24:38;34.30;87.80
5218;DHT22;26539;51.064;6.346;2023-05-01T10:27:05;34.40;70.50
5218;DHT22;26539;51.064;6.346;2023-05-01T10:29:33;34.60;72.70
5218;DHT22;26539;51.064;6.346;2023-05-01T10:32:01;34.90;72.90
5218;DHT22;26539;51.064;6.346;2023-05-01T10:34:30;35.20;74.80
5218;DHT22;26539;51.064;6.346;2023-05-01T10:37:00;35.50;77.10
5218;DHT22;26539;51.064;6.346;2023-05-01T10:39:34;36.10;79.80
5218;DHT22;26539;51.064;6.346;2023-05-01T10:42:07;36.40;80.60
5218;DHT22;26539;51.064;6.346;2023-05-01T10:44:39;36.80;93.80
5218;DHT22;26539;51.064;6.346;2023-05-01T10:50:11;37.40;80.70
5218;DHT22;26539;51.064;6.346;2023-05-01T10:55:46;37.80;78.10
5218;DHT22;26539;51.064;6.346;2023-05-01T10:58:13;37.70;76.90
5218;DHT22;26539;51.064;6.346;2023-05-01T11:01:33;37.70;75.30
5218;DHT22;26539;51.064;6.346;2023-05-01T11:04:03;37.80;73.60
5218;DHT22;26539;51.064;6.346;2023-05-01T11:06:29;37.60;72.20
5218;DHT22;26539;51.064;6.346;2023-05-01T11:08:55;37.50;70.30
5218;DHT22;26539;51.064;6.346;2023-05-01T11:14:03;37.40;68.40
5218;DHT22;26539;51.064;6.346;2023-05-01T11:19:09;37.80;71.20
5218;DHT22;26539;51.064;6.346;2023-05-01T11:21:36;38.10;69.90
5218;DHT22;26539;51.064;6.346;2023-05-01T11:24:03;38.40;70.10
5218;DHT22;26539;51.064;6.346;2023-05-01T11:26:29;38.50;70.00
5218;DHT22;26539;51.064;6.346;2023-05-01T11:28:59;38.40;67.50
5218;DHT22;26539;51.064;6.346;2023-05-01T11:31:26;38.20;66.20
5218;DHT22;26539;51.064;6.346;2023-05-01T11:33:55;38.20;66.30
5218;DHT22;26539;51.064;6.346;2023-05-01T11:36:21;38.10;65.00
5218;DHT22;26539;51.064;6.346;2023-05-01T11:38:57;37.80;62.10
5218;DHT22;26539;51.064;6.346;2023-05-01T11:41:24;37.70;62.10
5218;DHT22;26539;51.064;6.346;2023-05-01T11:43:56;37.90;62.50
5218;DHT22;26539;51.064;6.346;2023-05-01T11:46:27;37.90;63.50
5218;DHT22;26539;51.064;6.346;2023-05-01T11:48:57;37.00;58.40
5218;DHT22;26539;51.064;6.346;2023-05-01T11:51:24;36.10;56.00
5218;DHT22;26539;51.064;6.346;2023-05-01T11:54:01;35.10;54.80
5218;DHT22;26539;51.064;6.346;2023-05-01T11:56:28;34.10;52.60
5218;DHT22;26539;51.064;6.346;2023-05-01T11:58:58;33.40;51.10
5218;DHT22;26539;51.064;6.346;2023-05-01T12:01:34;32.70;51.50
5218;DHT22;26539;51.064;6.346;2023-05-01T12:04:00;32.10;50.70
5218;DHT22;26539;51.064;6.346;2023-05-01T12:06:45;31.60;50.60
5218;DHT22;26539;51.064;6.346;2023-05-01T12:09:16;30.80;50.70
5218;DHT22;26539;51.064;6.346;2023-05-01T12:11:43;29.90;49.70
5218;DHT22;26539;51.064;6.346;2023-05-01T12:14:10;29.30;49.70
5218;DHT22;26539;51.064;6.346;2023-05-01T12:16:36;28.90;50.70
5218;DHT22;26539;51.064;6.346;2023-05-01T12:19:05;28.60;51.60
5218;DHT22;26539;51.064;6.346;2023-05-01T12:21:30;28.30;51.90
5218;DHT22;26539;51.064;6.346;2023-05-01T12:24:06;28.10;52.20
5218;DHT22;26539;51.064;6.346;2023-05-01T12:26:31;27.90;52.60
5218;DHT22;26539;51.064;6.346;2023-05-01T12:28:59;27.80;53.50
5218;DHT22;26539;51.064;6.346;2023-05-01T12:31:25;27.80;54.80
5218;DHT22;26539;51.064;6.346;2023-05-01T12:33:55;27.80;55.60
5218;DHT22;26539;51.064;6.346;2023-05-01T12:36:22;27.90;57.20
5218;DHT22;26539;51.064;6.346;2023-05-01T12:39:05;27.90;58.70
5218;DHT22;26539;51.064;6.346;2023-05-01T12:41:39;27.90;59.50
5218;DHT22;26539;51.064;6.346;2023-05-01T12:44:25;28.00;59.50
5218;DHT22;26539;51.064;6.346;2023-05-01T12:49:29;29.40;67.20
5218;DHT22;26539;51.064;6.346;2023-05-01T12:51:58;30.40;72.40
5218;DHT22;26539;51.064;6.346;2023-05-01T12:54:27;31.60;77.60
5218;DHT22;26539;51.064;6.346;2023-05-01T12:57:13;32.50;80.30
5218;DHT22;26539;51.064;6.346;2023-05-01T12:59:40;33.30;82.10
5218;DHT22;26539;51.064;6.346;2023-05-01T13:02:10;33.90;82.90
5218;DHT22;26539;51.064;6.346;2023-05-01T13:04:37;34.30;83.10
5218;DHT22;26539;51.064;6.346;2023-05-01T13:07:21;34.70;82.30
5218;DHT22;26539;51.064;6.346;2023-05-01T13:09:55;34.30;78.50
5218;DHT22;26539;51.064;6.346;2023-05-01T13:12:21;34.30;77.10
5218;DHT22;26539;51.064;6.346;2023-05-01T13:14:47;34.40;76.60
5218;DHT22;26539;51.064;6.346;2023-05-01T13:17:28;34.10;75.00
5218;DHT22;26539;51.064;6.346;2023-05-01T13:19:55;33.20;68.00
5218;DHT22;26539;51.064;6.346;2023-05-01T13:22:34;32.20;62.60
5218;DHT22;26539;51.064;6.346;2023-05-01T13:25:01;31.20;59.60
5218;DHT22;26539;51.064;6.346;2023-05-01T13:27:30;30.60;58.00
5218;DHT22;26539;51.064;6.346;2023-05-01T13:29:57;29.70;56.50
5218;DHT22;26539;51.064;6.346;2023-05-01T13:32:23;29.00;55.00
5218;DHT22;26539;51.064;6.346;2023-05-01T13:34:49;28.20;53.40
5218;DHT22;26539;51.064;6.346;2023-05-01T13:37:15;27.50;52.80
5218;DHT22;26539;51.064;6.346;2023-05-01T13:39:45;26.80;52.00
5218;DHT22;26539;51.064;6.346;2023-05-01T13:42:11;26.40;51.50
5218;DHT22;26539;51.064;6.346;2023-05-01T13:44:47;25.90;51.60
5218;DHT22;26539;51.064;6.346;2023-05-01T13:47:16;25.40;50.90
5218;DHT22;26539;51.064;6.346;2023-05-01T13:49:43;24.80;50.20
5218;DHT22;26539;51.064;6.346;2023-05-01T13:52:19;24.30;50.50
5218;DHT22;26539;51.064;6.346;2023-05-01T13:54:46;23.80;48.80
5218;DHT22;26539;51.064;6.346;2023-05-01T13:57:12;23.50;49.90
5218;DHT22;26539;51.064;6.346;2023-05-01T13:59:39;23.10;49.50
5218;DHT22;26539;51.064;6.346;2023-05-01T14:02:25;22.70;49.60
5218;DHT22;26539;51.064;6.346;2023-05-01T14:04:51;22.40;50.50
5218;DHT22;26539;51.064;6.346;2023-05-01T14:07:18;22.10;51.00
5218;DHT22;26539;51.064;6.346;2023-05-01T14:09:48;21.90;51.40
5218;DHT22;26539;51.064;6.346;2023-05-01T14:12:17;21.80;53.10
5218;DHT22;26539;51.064;6.346;2023-05-01T14:14:46;21.70;54.20
5218;DHT22;26539;51.064;6.346;2023-05-01T14:17:12;21.70;55.50
5218;DHT22;26539;51.064;6.346;2023-05-01T14:19:38;21.60;58.70
5218;DHT22;26539;51.064;6.346;2023-05-01T14:22:06;21.40;59.20
5218;DHT22;26539;51.064;6.346;2023-05-01T14:24:39;21.20;61.40
5218;DHT22;26539;51.064;6.346;2023-05-01T14:27:07;21.00;62.90
5218;DHT22;26539;51.064;6.346;2023-05-01T14:29:34;20.70;65.40
5218;DHT22;26539;51.064;6.346;2023-05-01T14:32:03;20.50;68.80
5218;DHT22;26539;51.064;6.346;2023-05-01T14:34:28;20.30;72.00
5218;DHT22;26539;51.064;6.346;2023-05-01T14:36:54;20.20;73.90
5218;DHT22;26539;51.064;6.346;2023-05-01T14:39:20;20.10;75.80
5218;DHT22;26539;51.064;6.346;2023-05-01T14:41:47;20.00;77.50
5218;DHT22;26539;51.064;6.346;2023-05-01T14:44:17;20.00;79.80
5218;DHT22;26539;51.064;6.346;2023-05-01T14:46:47;20.00;82.30
5218;DHT22;26539;51.064;6.346;2023-05-01T14:49:21;20.00;84.30
5218;DHT22;26539;51.064;6.346;2023-05-01T14:51:49;20.10;96.60
5218;DHT22;26539;51.064;6.346;2023-05-01T14:54:15;20.20;89.40
5218;DHT22;26539;51.064;6.346;2023-05-01T14:56:41;20.40;90.80
5218;DHT22;26539;51.064;6.346;2023-05-01T14:59:07;20.50;91.90
5218;DHT22;26539;51.064;6.346;2023-05-01T15:01:33;20.30;92.90
5218;DHT22;26539;51.064;6.346;2023-05-01T15:03:58;20.10;93.40
5218;DHT22;26539;51.064;6.346;2023-05-01T15:06:24;20.00;94.50
5218;DHT22;26539;51.064;6.346;2023-05-01T15:08:50;19.90;96.00
5218;DHT22;26539;51.064;6.346;2023-05-01T15:11:16;19.70;96.30
5218;DHT22;26539;51.064;6.346;2023-05-01T15:13:43;19.70;97.40
5218;DHT22;26539;51.064;6.346;2023-05-01T15:16:09;19.60;97.40
5218;DHT22;26539;51.064;6.346;2023-05-01T15:18:35;19.70;99.00
5218;DHT22;26539;51.064;6.346;2023-05-01T15:21:01;19.80;99.90
5218;DHT22;26539;51.064;6.346;2023-05-01T15:23:27;19.80;99.90
5218;DHT22;26539;51.064;6.346;2023-05-01T15:25:53;19.70;99.90
5218;DHT22;26539;51.064;6.346;2023-05-01T15:28:18;19.70;99.90
5218;DHT22;26539;51.064;6.346;2023-05-01T15:30:45;19.60;99.90
5218;DHT22;26539;51.064;6.346;2023-05-01T15:33:11;19.50;99.90
5218;DHT22;26539;51.064;6.346;2023-05-01T15:35:37;19.40;99.90
5218;DHT22;26539;51.064;6.346;2023-05-01T15:38:03;19.20;99.90
5218;DHT22;26539;51.064;6.346;2023-05-01T15:40:28;19.00;99.90
5218;DHT22;26539;51.064;6.346;2023-05-01T15:42:54;18.70;99.90
5218;DHT22;26539;51.064;6.346;2023-05-01T15:45:20;18.40;99.90
5218;DHT22;26539;51.064;6.346;2023-05-01T15:47:46;18.20;99.90
5218;DHT22;26539;51.064;6.346;2023-05-01T15:50:11;18.10;99.90
5218;DHT22;26539;51.064;6.346;2023-05-01T15:52:37;18.10;99.90
5218;DHT22;26539;51.064;6.346;2023-05-01T15:55:03;18.00;99.90
5218;DHT22;26539;51.064;6.346;2023-05-01T15:57:29;17.80;99.90
5218;DHT22;26539;51.064;6.346;2023-05-01T15:59:56;17.60;99.90
5218;DHT22;26539;51.064;6.346;2023-05-01T16:02:22;17.60;99.90
5218;DHT22;26539;51.064;6.346;2023-05-01T16:04:48;17.50;99.90
5218;DHT22;26539;51.064;6.346;2023-05-01T16:07:14;17.30;99.90
5218;DHT22;26539;51.064;6.346;2023-05-01T16:09:40;17.20;99.90
5218;DHT22;26539;51.064;6.346;2023-05-01T16:12:06;17.10;99.90
5218;DHT22;26539;51.064;6.346;2023-05-01T16:14:38;16.90;99.90
5218;DHT22;26539;51.064;6.346;2023-05-01T16:17:04;16.80;99.90
5218;DHT22;26539;51.064;6.346;2023-05-01T16:19:30;16.60;1.00
5218;DHT22;26539;51.064;6.346;2023-05-01T16:21:56;16.40;1.00